Time;durP1;ratioP1;P1;durP2;ratioP2;P2;SDS_P1;SDS_P2;PMS_P1;PMS_P2;Temp;Humidity;BMP_temperature;BMP_pressure;BME280_temperature;BME280_humidity;BME280_pressure;Samples;Min_cycle;Max_cycle;Signal;HPM_P1;HPM_P2
2023/03/18 00:08:25;;;;;;;11.82;6.78;;;-0.10;99.90;;;;;;20990109;28;20037;-46
2023/03/18 00:18:27;;;;;;;13.45;6.30;;;-0.10;99.90;;;;;;20997460;28;20040;-46
2023/03/18 00:28:33;;;;;;;14.43;6.70;;;0.10;99.90;;;;;;20996764;28;20056;-46
2023/03/18 00:38:38;;;;;;;14.13;6.65;;;0.00;99.90;;;;;;20978726;28;20037;-50
2023/03/18 00:48:40;;;;;;;12.88;5.57;;;-0.10;99.90;;;;;;20995637;28;20021;-50
2023/03/18 00:58:42;;;;;;;12.45;6.80;;;0.00;99.90;;;;;;20976944;28;20032;-46
2023/03/18 01:08:44;;;;;;;11.30;5.97;;;0.00;99.90;;;;;;20976521;28;20110;-48
2023/03/18 01:18:48;;;;;;;10.30;6.03;;;0.00;99.90;;;;;;20992463;28;20090;-50
2023/03/18 01:28:50;;;;;;;11.35;6.45;;;-0.20;99.90;;;;;;20974249;28;20385;-45
2023/03/18 01:38:53;;;;;;;10.15;5.32;;;-0.20;99.90;;;;;;20974188;28;20074;-46
2023/03/18 01:48:55;;;;;;;10.50;5.45;;;-0.20;99.90;;;;;;20990352;28;20036;-46
2023/03/18 01:58:59;;;;;;;13.38;6.53;;;-0.20;99.90;;;;;;20972190;28;20082;-47
2023/03/18 02:09:02;;;;;;;17.45;8.27;;;-0.30;99.90;;;;;;20971593;28;20563;-46
2023/03/18 02:19:32;;;;;;;10.23;5.65;;;-0.20;99.90;;;;;;20970899;28;20036;-46
2023/03/18 02:29:36;;;;;;;13.53;7.40;;;-0.10;99.90;;;;;;20970560;28;20082;-47
2023/03/18 02:39:42;;;;;;;9.27;5.30;;;-0.20;99.90;;;;;;20970442;28;20030;-49
2023/03/18 02:49:44;;;;;;;8.48;4.50;;;-0.30;99.90;;;;;;20970457;28;20385;-50
2023/03/18 02:59:47;;;;;;;10.63;5.28;;;-0.30;99.90;;;;;;20968797;28;20428;-48
2023/03/18 03:09:49;;;;;;;9.32;4.82;;;-0.30;99.90;;;;;;20986539;28;20044;-46
2023/03/18 03:19:50;;;;;;;9.30;4.57;;;-0.30;99.90;;;;;;20997870;28;20400;-50
2023/03/18 03:29:52;;;;;;;10.88;5.43;;;-0.20;99.90;;;;;;21002177;28;20024;-47
2023/03/18 03:39:55;;;;;;;10.77;5.90;;;-0.10;99.90;;;;;;20984077;28;20037;-46
2023/03/18 03:49:56;;;;;;;9.60;4.40;;;0.00;99.90;;;;;;21000601;28;20033;-48
2023/03/18 03:59:58;;;;;;;8.88;4.90;;;0.00;99.90;;;;;;20981764;28;20394;-46
2023/03/18 04:10:22;;;;;;;9.23;5.15;;;0.10;99.90;;;;;;20989253;28;20043;-45
2023/03/18 04:20:23;;;;;;;7.53;4.20;;;0.20;99.90;;;;;;20993694;28;20106;-46
2023/03/18 04:30:26;;;;;;;8.95;4.30;;;0.30;99.90;;;;;;20973354;28;20051;-48
2023/03/18 04:40:49;;;;;;;8.27;4.70;;;0.40;99.90;;;;;;20973773;28;20028;-46
2023/03/18 04:50:53;;;;;;;9.80;4.30;;;0.40;99.90;;;;;;20991313;28;20078;-46
2023/03/18 05:00:59;;;;;;;9.27;4.22;;;0.30;99.90;;;;;;20989198;28;20393;-47
2023/03/18 05:11:08;;;;;;;8.38;4.03;;;0.10;99.90;;;;;;20885785;28;1390267;-47
2023/03/18 05:21:11;;;;;;;7.25;3.40;;;0.10;99.90;;;;;;20912764;28;20028;-46
2023/03/18 05:31:14;;;;;;;9.77;4.57;;;0.00;99.90;;;;;;20924184;28;20098;-45
2023/03/18 05:41:16;;;;;;;9.73;4.00;;;0.20;99.90;;;;;;20929675;28;20497;-49
2023/03/18 05:51:18;;;;;;;10.93;4.40;;;0.30;99.90;;;;;;20890675;28;20033;-47
2023/03/18 06:01:20;;;;;;;10.77;4.40;;;0.50;99.90;;;;;;20893203;28;20084;-48
2023/03/18 06:11:23;;;;;;;11.45;5.78;;;0.50;99.90;;;;;;20930315;28;20041;-49
2023/03/18 06:21:27;;;;;;;13.50;6.90;;;0.50;99.90;;;;;;20970672;28;20047;-47
2023/03/18 06:31:29;;;;;;;11.05;5.50;;;0.60;99.90;;;;;;20969476;28;20032;-45
2023/03/18 06:41:31;;;;;;;10.88;5.22;;;0.70;99.90;;;;;;20967027;28;20062;-45
2023/03/18 06:52:13;;;;;;;11.27;5.87;;;0.90;99.90;;;;;;20649613;28;20512;-47
2023/03/18 07:02:22;;;;;;;12.68;7.10;;;1.40;99.90;;;;;;20665066;28;20448;-47
2023/03/18 07:12:27;;;;;;;11.32;7.05;;;2.10;99.90;;;;;;20648682;28;20046;-48
2023/03/18 07:22:29;;;;;;;12.63;6.80;;;3.20;99.90;;;;;;20844550;28;20045;-46
2023/03/18 07:32:31;;;;;;;11.05;6.90;;;4.50;99.90;;;;;;20900685;28;20056;-51
2023/03/18 07:42:33;;;;;;;12.75;8.15;;;5.70;99.90;;;;;;20902111;28;20037;-47
2023/03/18 07:52:36;;;;;;;12.85;8.00;;;6.60;99.90;;;;;;20899524;28;20049;-49
2023/03/18 08:02:38;;;;;;;14.40;8.35;;;7.00;99.90;;;;;;20907120;28;20087;-47
2023/03/18 08:12:41;;;;;;;11.63;7.97;;;7.30;98.50;;;;;;20966041;28;20051;-48
2023/03/18 08:22:44;;;;;;;14.00;8.60;;;8.10;98.90;;;;;;20995286;28;20436;-49
2023/03/18 08:32:47;;;;;;;14.88;8.68;;;8.70;96.10;;;;;;20997152;28;20547;-47
2023/03/18 08:42:48;;;;;;;13.63;8.50;;;9.50;97.30;;;;;;20996146;28;20066;-48
2023/03/18 08:52:51;;;;;;;12.50;8.75;;;10.00;96.00;;;;;;20996138;28;20561;-51
2023/03/18 09:02:53;;;;;;;16.17;9.63;;;10.10;95.70;;;;;;20994757;28;20032;-47
2023/03/18 09:12:54;;;;;;;14.15;9.65;;;10.50;95.60;;;;;;20992929;28;20044;-46
2023/03/18 09:22:56;;;;;;;14.77;9.35;;;10.40;94.40;;;;;;20993392;28;20375;-48
2023/03/18 09:32:58;;;;;;;15.75;9.40;;;10.80;93.60;;;;;;20993135;28;20567;-48
2023/03/18 09:43:12;;;;;;;15.25;9.65;;;11.30;94.10;;;;;;20991230;28;20470;-51
2023/03/18 09:53:24;;;;;;;16.48;9.82;;;11.30;94.30;;;;;;20989180;28;20361;-50
2023/03/18 10:03:37;;;;;;;15.02;10.55;;;11.90;93.70;;;;;;20989925;28;20036;-49
2023/03/18 10:13:47;;;;;;;15.52;10.38;;;12.20;93.30;;;;;;20988681;28;20044;-52
2023/03/18 10:24:07;;;;;;;15.75;11.00;;;12.70;91.10;;;;;;20988339;28;20028;-50
2023/03/18 10:34:21;;;;;;;14.87;10.43;;;12.60;91.90;;;;;;20987854;28;20102;-47
2023/03/18 10:44:32;;;;;;;14.63;11.10;;;12.70;90.40;;;;;;20987260;28;20102;-53
2023/03/18 10:54:45;;;;;;;15.27;11.02;;;12.80;92.20;;;;;;20987232;28;20057;-51
2023/03/18 11:04:53;;;;;;;16.52;11.73;;;12.80;90.30;;;;;;20978978;28;20037;-52
2023/03/18 11:14:55;;;;;;;16.90;12.02;;;13.00;92.30;;;;;;20986035;28;20049;-52
2023/03/18 11:25:10;;;;;;;16.55;11.90;;;13.00;91.40;;;;;;20978999;28;20037;-48
2023/03/18 11:35:19;;;;;;;18.13;12.80;;;13.10;92.30;;;;;;20901028;28;20394;-51
2023/03/18 11:45:46;;;;;;;20.90;13.90;;;13.30;92.10;;;;;;20964299;28;20044;-49
2023/03/18 11:56:02;;;;;;;21.02;14.40;;;13.50;92.00;;;;;;20999875;28;20028;-51
2023/03/18 12:06:15;;;;;;;21.13;13.83;;;13.60;91.70;;;;;;20999782;28;20110;-51
2023/03/18 12:16:27;;;;;;;21.13;14.27;;;13.50;93.30;;;;;;20998119;28;20049;-53
2023/03/18 12:26:41;;;;;;;25.58;16.65;;;13.60;91.70;;;;;;20997521;28;20047;-48
2023/03/18 12:36:50;;;;;;;25.48;16.65;;;13.50;93.90;;;;;;20997446;28;20078;-50
2023/03/18 12:47:06;;;;;;;26.38;16.15;;;13.50;92.80;;;;;;20994663;28;20028;-49
2023/03/18 12:57:27;;;;;;;22.92;16.13;;;13.30;93.80;;;;;;20977731;28;20102;-50
2023/03/18 13:07:52;;;;;;;22.88;17.05;;;13.30;93.10;;;;;;20995365;28;20036;-50
2023/03/18 13:17:58;;;;;;;27.60;18.67;;;13.60;92.20;;;;;;20993643;28;20086;-50
2023/03/18 13:28:07;;;;;;;28.45;18.50;;;13.30;93.20;;;;;;20992528;28;20102;-51
2023/03/18 13:38:41;;;;;;;27.27;18.35;;;13.20;92.20;;;;;;20992752;28;20390;-52
2023/03/18 13:48:43;;;;;;;27.90;19.55;;;12.90;92.10;;;;;;20910328;28;20085;-52
2023/03/18 13:58:51;;;;;;;29.60;19.33;;;12.60;91.10;;;;;;20989888;28;20025;-50
2023/03/18 14:08:53;;;;;;;26.85;17.40;;;12.20;92.50;;;;;;20981473;28;20041;-57
2023/03/18 14:19:03;;;;;;;26.00;16.45;;;11.90;91.60;;;;;;20988643;28;20032;-57
2023/03/18 14:29:05;;;;;;;27.40;17.33;;;11.30;91.40;;;;;;20987923;28;20036;-56
2023/03/18 14:39:12;;;;;;;24.23;15.57;;;10.90;92.40;;;;;;20987870;28;20036;-51
2023/03/18 14:49:53;;;;;;;22.92;14.88;;;10.60;91.00;;;;;;20969253;28;20047;-56
2023/03/18 14:59:58;;;;;;;23.42;13.90;;;10.20;91.80;;;;;;20987183;28;20462;-50
2023/03/18 15:10:18;;;;;;;20.60;13.57;;;9.80;91.50;;;;;;20974258;28;20047;-49
2023/03/18 15:20:21;;;;;;;21.38;13.25;;;9.70;92.50;;;;;;21003138;28;20422;-47
2023/03/18 15:30:29;;;;;;;21.75;13.38;;;9.20;92.50;;;;;;21002360;28;20032;-51
2023/03/18 15:40:35;;;;;;;23.02;13.57;;;8.90;92.50;;;;;;20986591;28;20082;-49
2023/03/18 15:50:50;;;;;;;20.05;13.68;;;8.40;93.30;;;;;;21000648;28;20028;-56
2023/03/18 16:00:53;;;;;;;24.75;14.38;;;8.00;94.40;;;;;;20999959;28;20071;-48
2023/03/18 16:10:59;;;;;;;20.60;13.07;;;7.40;94.80;;;;;;20999059;28;20055;-49
2023/03/18 16:21:02;;;;;;;24.10;13.27;;;6.50;96.70;;;;;;20997922;28;20024;-56
2023/03/18 16:31:07;;;;;;;23.15;13.23;;;5.90;97.30;;;;;;20980073;28;20189;-48
2023/03/18 16:41:08;;;;;;;23.70;12.75;;;5.30;98.60;;;;;;20983705;28;20466;-53
2023/03/18 16:51:13;;;;;;;23.48;12.43;;;4.80;99.60;;;;;;20996343;28;20394;-56
2023/03/18 17:01:18;;;;;;;19.55;11.52;;;4.40;99.90;;;;;;20995264;28;20036;-49
2023/03/18 17:11:20;;;;;;;24.17;11.48;;;4.00;99.90;;;;;;20994783;28;20049;-47
2023/03/18 17:21:21;;;;;;;20.73;11.80;;;3.60;99.90;;;;;;20993078;28;20051;-51
2023/03/18 17:31:23;;;;;;;19.42;11.13;;;3.20;99.90;;;;;;20992260;28;20436;-48
2023/03/18 17:41:25;;;;;;;21.65;10.70;;;3.10;99.90;;;;;;20991463;28;20033;-49
2023/03/18 17:51:27;;;;;;;17.17;9.45;;;2.90;99.90;;;;;;20991101;28;20105;-48
2023/03/18 18:01:29;;;;;;;17.60;10.25;;;2.70;99.90;;;;;;20989998;28;20024;-55
2023/03/18 18:11:34;;;;;;;21.77;10.73;;;2.30;99.90;;;;;;20989038;28;20090;-46
2023/03/18 18:21:36;;;;;;;19.48;11.07;;;2.00;99.90;;;;;;20989139;28;20037;-50
2023/03/18 18:31:37;;;;;;;23.65;12.27;;;2.00;99.90;;;;;;20988552;28;20058;-50
2023/03/18 18:41:39;;;;;;;25.55;13.75;;;1.80;99.90;;;;;;20987380;28;20032;-47
2023/03/18 18:51:41;;;;;;;23.13;14.05;;;1.80;99.90;;;;;;20986866;28;20032;-49
2023/03/18 19:01:43;;;;;;;30.08;16.92;;;1.60;99.90;;;;;;20986892;28;20032;-46
2023/03/18 19:11:46;;;;;;;23.85;12.73;;;1.50;99.90;;;;;;20986193;28;20036;-47
2023/03/18 19:21:49;;;;;;;34.00;17.10;;;1.50;99.90;;;;;;20985965;28;20044;-47
2023/03/18 19:31:51;;;;;;;31.05;16.95;;;1.40;99.90;;;;;;20987288;28;20045;-45
2023/03/18 19:41:53;;;;;;;36.90;18.73;;;1.40;99.90;;;;;;20985102;28;20473;-50
2023/03/18 19:51:55;;;;;;;37.78;19.73;;;1.50;99.90;;;;;;20984758;28;20028;-46
2023/03/18 20:01:57;;;;;;;37.17;19.10;;;1.50;99.90;;;;;;20987443;28;20033;-46
2023/03/18 20:12:04;;;;;;;41.85;19.95;;;1.60;99.90;;;;;;20981373;28;20056;-47
2023/03/18 20:22:08;;;;;;;39.88;20.27;;;1.70;99.90;;;;;;20999189;28;20071;-46
2023/03/18 20:32:10;;;;;;;40.03;20.90;;;1.60;99.90;;;;;;20979577;28;20028;-46
2023/03/18 20:42:15;;;;;;;43.25;22.38;;;1.50;99.90;;;;;;20996816;28;20037;-46
2023/03/18 20:52:30;;;;;;;44.55;23.73;;;1.40;99.90;;;;;;20997030;28;20066;-49
2023/03/18 21:02:34;;;;;;;37.53;19.75;;;1.30;99.90;;;;;;20996245;28;20090;-45
2023/03/18 21:12:36;;;;;;;36.88;20.30;;;1.20;99.90;;;;;;20994734;28;20048;-46
2023/03/18 21:22:38;;;;;;;37.05;19.77;;;1.40;99.90;;;;;;20994311;28;20044;-49
2023/03/18 21:32:41;;;;;;;40.28;20.25;;;1.50;99.90;;;;;;20992611;28;20508;-47
2023/03/18 21:42:43;;;;;;;26.80;13.80;;;1.60;99.90;;;;;;20992075;28;20086;-46
2023/03/18 21:52:46;;;;;;;28.67;15.30;;;1.70;99.90;;;;;;20991532;28;20036;-49
2023/03/18 22:02:48;;;;;;;23.27;13.40;;;1.80;99.90;;;;;;20990709;28;20363;-46
2023/03/18 22:12:50;;;;;;;28.75;14.23;;;1.60;99.90;;;;;;21007423;28;20517;-48
2023/03/18 22:22:52;;;;;;;27.77;12.70;;;1.20;99.90;;;;;;21100652;28;20116;-45
2023/03/18 22:32:54;;;;;;;24.48;14.10;;;1.20;99.90;;;;;;21071670;28;20555;-50
2023/03/18 22:42:59;;;;;;;22.35;11.23;;;1.30;99.90;;;;;;21071235;28;20036;-49
2023/03/18 22:53:06;;;;;;;23.38;13.10;;;1.40;99.90;;;;;;21070977;28;20032;-45
2023/03/18 23:03:18;;;;;;;25.25;12.73;;;1.40;99.90;;;;;;21052121;28;20040;-46
2023/03/18 23:13:30;;;;;;;20.73;10.02;;;1.40;99.90;;;;;;21070008;28;20044;-46
2023/03/18 23:23:32;;;;;;;25.33;10.95;;;1.30;99.90;;;;;;21069901;28;20028;-47
2023/03/18 23:33:33;;;;;;;19.30;11.10;;;1.40;99.90;;;;;;21075443;28;20040;-53
2023/03/18 23:43:35;;;;;;;23.02;11.45;;;1.60;99.90;;;;;;21085750;28;20435;-47
2023/03/18 23:53:37;;;;;;;22.17;12.10;;;1.60;99.90;;;;;;21084774;28;20105;-45
